createdAt,value
2022-09-04T00:00:18.880Z,1.00
2022-09-04T00:03:17.348Z,1.13
2022-09-04T00:05:47.092Z,0.90
2022-09-04T00:08:35.949Z,1.08
2022-09-04T00:11:05.990Z,1.00
2022-09-04T00:14:08.318Z,1.00
2022-09-04T00:17:03.946Z,0.90
2022-09-04T00:19:37.058Z,0.90
2022-09-04T00:22:18.598Z,1.33
2022-09-04T00:24:56.697Z,1.20
2022-09-04T00:27:26.975Z,1.00
2022-09-04T00:30:05.215Z,1.40
2022-09-04T00:32:41.367Z,0.82
2022-09-04T00:35:33.531Z,0.90
2022-09-04T00:38:34.631Z,1.30
2022-09-04T00:41:27.779Z,1.17
2022-09-04T00:44:20.462Z,0.65
2022-09-04T00:47:09.341Z,0.73
2022-09-04T00:50:07.212Z,1.10
2022-09-04T00:52:58.324Z,1.00
2022-09-04T00:55:32.385Z,1.15
2022-09-04T00:58:24.003Z,1.02
2022-09-04T01:00:55.963Z,1.00
2022-09-04T01:03:46.616Z,0.85
2022-09-04T01:06:21.515Z,1.30
2022-09-04T01:09:18.757Z,1.00
2022-09-04T01:11:55.478Z,1.00
2022-09-04T01:14:39.256Z,1.00
2022-09-04T01:17:30.171Z,0.90
2022-09-04T01:20:06.097Z,1.23
2022-09-04T01:22:51.897Z,1.00
2022-09-04T01:25:40.433Z,0.95
2022-09-04T01:28:27.133Z,1.13
2022-09-04T01:31:22.181Z,1.08
2022-09-04T01:34:08.870Z,1.00
2022-09-04T01:37:07.915Z,1.02
2022-09-04T01:39:36.968Z,1.38
2022-09-04T01:42:18.121Z,1.20
2022-09-04T01:44:45.034Z,1.20
2022-09-04T01:47:51.995Z,1.20
2022-09-04T01:50:26.584Z,1.35
2022-09-04T01:53:05.912Z,1.30
2022-09-04T01:55:54.801Z,1.10
2022-09-04T01:59:16.160Z,1.30
2022-09-04T02:01:50.648Z,1.25
2022-09-04T02:04:23.333Z,1.20
2022-09-04T02:06:59.732Z,1.23
2022-09-04T02:10:03.092Z,0.98
2022-09-04T02:12:54.552Z,1.10
2022-09-04T02:15:55.600Z,1.33
2022-09-04T02:18:36.132Z,1.02
2022-09-04T02:21:18.326Z,1.45
2022-09-04T02:23:55.288Z,1.23
2022-09-04T02:27:01.555Z,1.10
2022-09-04T02:29:37.632Z,1.27
2022-09-04T02:32:22.409Z,1.15
2022-09-04T02:35:19.068Z,1.13
2022-09-04T02:37:48.700Z,1.30
2022-09-04T02:40:59.215Z,1.30
2022-09-04T02:43:28.808Z,0.85
2022-09-04T02:46:20.303Z,1.05
2022-09-04T02:49:13.364Z,1.20
2022-09-04T02:52:11.441Z,1.10
2022-09-04T02:54:50.400Z,1.30
2022-09-04T02:57:47.767Z,1.10
2022-09-04T03:00:21.612Z,1.33
2022-09-04T03:02:58.149Z,1.20
2022-09-04T03:05:30.166Z,1.35
2022-09-04T03:08:15.588Z,1.25
2022-09-04T03:11:16.602Z,1.13
2022-09-04T03:13:50.920Z,1.42
2022-09-04T03:16:41.295Z,1.63
2022-09-04T03:19:36.096Z,1.10
2022-09-04T03:22:20.129Z,1.15
2022-09-04T03:24:50.077Z,1.63
2022-09-04T03:27:19.006Z,1.35
2022-09-04T03:30:04.159Z,1.33
2022-09-04T03:32:31.026Z,1.30
2022-09-04T03:35:19.927Z,1.73
2022-09-04T03:38:18.523Z,1.25
2022-09-04T03:41:07.098Z,1.40
2022-09-04T03:43:55.842Z,1.42
2022-09-04T03:46:34.699Z,1.10
2022-09-04T03:49:19.112Z,1.27
2022-09-04T03:51:54.078Z,1.20
2022-09-04T03:54:38.774Z,1.20
2022-09-04T03:57:26.894Z,1.40
2022-09-04T04:00:19.856Z,1.20
2022-09-04T04:03:01.839Z,1.40
2022-09-04T04:05:36.979Z,1.42
2022-09-04T04:08:17.235Z,1.40
2022-09-04T04:10:59.335Z,1.20
2022-09-04T04:13:44.374Z,1.30
2022-09-04T04:16:32.280Z,1.27
2022-09-04T04:19:10.760Z,1.42
2022-09-04T04:22:01.641Z,1.70
2022-09-04T04:24:55.402Z,1.30
2022-09-04T04:27:46.688Z,1.50
2022-09-04T04:30:17.587Z,1.13
2022-09-04T04:32:53.821Z,1.20
2022-09-04T04:35:41.493Z,1.10
2022-09-04T04:38:18.569Z,1.27
2022-09-04T04:41:00.405Z,1.58
2022-09-04T04:43:42.352Z,1.45
2022-09-04T04:46:34.798Z,1.48
2022-09-04T04:49:23.766Z,1.25
2022-09-04T04:51:50.616Z,1.67
2022-09-04T04:54:57.055Z,1.10
2022-09-04T04:57:35.504Z,1.70
2022-09-04T05:00:09.052Z,1.40
2022-09-04T05:02:51.763Z,1.33
2022-09-04T05:05:56.603Z,1.30
2022-09-04T05:08:50.046Z,1.30
2022-09-04T05:11:45.090Z,1.20
2022-09-04T05:14:27.022Z,1.45
2022-09-04T05:17:14.806Z,1.08
2022-09-04T05:19:48.473Z,1.25
2022-09-04T05:22:42.389Z,1.60
2022-09-04T05:25:38.423Z,1.27
2022-09-04T05:28:25.904Z,1.30
2022-09-04T05:31:09.888Z,1.00
2022-09-04T05:33:59.784Z,1.20
2022-09-04T05:36:42.763Z,1.65
2022-09-04T05:39:32.393Z,1.38
2022-09-04T05:42:06.704Z,1.30
2022-09-04T05:45:04.665Z,1.20
2022-09-04T05:47:50.767Z,1.30
2022-09-04T05:50:56.197Z,1.27
2022-09-04T05:53:56.215Z,1.23
2022-09-04T05:56:53.902Z,1.35
2022-09-04T05:59:48.361Z,1.10
2022-09-04T06:02:25.538Z,1.20
2022-09-04T06:05:24.203Z,1.30
2022-09-04T06:08:05.872Z,1.25
2022-09-04T06:11:05.585Z,1.35
2022-09-04T06:13:38.329Z,1.38
2022-09-04T06:19:17.318Z,1.17
2022-09-04T06:21:53.164Z,1.42
2022-09-04T06:24:41.574Z,1.23
2022-09-04T06:27:17.543Z,1.30
2022-09-04T06:30:08.123Z,1.00
2022-09-04T06:32:49.308Z,1.20
2022-09-04T06:35:28.483Z,1.10
2022-09-04T06:38:12.952Z,1.30
2022-09-04T06:41:04.626Z,1.30
2022-09-04T06:43:54.493Z,1.40
2022-09-04T06:46:24.347Z,1.30
2022-09-04T06:49:29.448Z,1.60
2022-09-04T06:52:29.724Z,1.48
2022-09-04T06:55:25.745Z,1.52
2022-09-04T06:58:01.782Z,1.70
2022-09-04T07:00:32.231Z,1.60
2022-09-04T07:03:27.149Z,1.90
2022-09-04T07:06:02.846Z,1.55
2022-09-04T07:08:59.883Z,1.50
2022-09-04T07:11:38.277Z,1.40
2022-09-04T07:14:45.041Z,1.35
2022-09-04T07:17:14.872Z,1.73
2022-09-04T07:20:07.850Z,1.88
2022-09-04T07:22:43.523Z,1.95
2022-09-04T07:25:44.573Z,1.70
2022-09-04T07:28:11.458Z,1.80
2022-09-04T07:31:03.679Z,2.13
2022-09-04T07:33:46.041Z,1.73
2022-09-04T07:36:29.549Z,1.50
2022-09-04T07:39:36.601Z,1.70
2022-09-04T07:42:29.471Z,1.85
2022-09-04T07:45:22.448Z,1.58
2022-09-04T07:48:16.689Z,1.70
2022-09-04T07:50:58.168Z,1.85
2022-09-04T07:53:54.170Z,1.90
2022-09-04T07:57:06.072Z,1.90
2022-09-04T08:00:25.547Z,1.70
2022-09-04T08:03:17.593Z,1.77
2022-09-04T08:06:02.780Z,2.00
2022-09-04T08:08:48.045Z,1.80
2022-09-04T08:11:28.516Z,2.15
2022-09-04T08:14:12.149Z,2.13
2022-09-04T08:17:03.784Z,2.13
2022-09-04T08:19:58.269Z,2.17
2022-09-04T08:23:04.200Z,2.28
2022-09-04T08:26:14.356Z,2.30
2022-09-04T08:29:08.125Z,2.35
2022-09-04T08:31:48.757Z,2.50
2022-09-04T08:34:25.156Z,2.20
2022-09-04T08:37:17.433Z,2.22
2022-09-04T08:40:03.110Z,2.35
2022-09-04T08:42:48.886Z,2.40
2022-09-04T08:45:24.986Z,2.05
2022-09-04T08:48:03.909Z,2.40
2022-09-04T08:50:54.186Z,2.53
2022-09-04T08:54:02.626Z,2.28
2022-09-04T08:56:37.736Z,2.70
2022-09-04T08:59:39.909Z,2.97
2022-09-04T09:02:44.347Z,2.70
2022-09-04T09:05:44.998Z,2.60
2022-09-04T09:08:33.599Z,2.45
2022-09-04T09:11:26.338Z,2.58
2022-09-04T09:14:11.668Z,2.50
2022-09-04T09:16:43.275Z,2.78
2022-09-04T09:19:24.123Z,3.03
2022-09-04T09:22:10.895Z,2.50
2022-09-04T09:25:01.094Z,3.13
2022-09-04T09:27:58.118Z,2.70
2022-09-04T09:30:25.340Z,2.67
2022-09-04T09:33:10.351Z,2.50
2022-09-04T09:35:54.742Z,3.00
2022-09-04T09:39:00.824Z,2.65
2022-09-04T09:41:53.346Z,2.78
2022-09-04T09:45:00.220Z,3.10
2022-09-04T09:48:02.496Z,2.72
2022-09-04T09:50:59.883Z,2.58
2022-09-04T09:53:46.869Z,2.80
2022-09-04T09:56:26.533Z,2.50
2022-09-04T09:58:53.477Z,2.80
2022-09-04T10:01:45.270Z,2.45
2022-09-04T10:04:22.669Z,2.22
2022-09-04T10:07:21.230Z,3.42
2022-09-04T10:10:13.135Z,2.63
2022-09-04T10:13:09.485Z,2.55
2022-09-04T10:16:08.592Z,2.92
2022-09-04T10:19:08.039Z,2.30
2022-09-04T10:22:17.511Z,2.38
2022-09-04T10:25:06.101Z,3.03
2022-09-04T10:28:27.421Z,2.17
2022-09-04T10:30:54.604Z,3.63
2022-09-04T10:33:27.059Z,2.38
2022-09-04T10:36:27.891Z,2.90
2022-09-04T10:39:39.960Z,2.20
2022-09-04T10:42:06.832Z,2.00
2022-09-04T10:44:41.458Z,2.22
2022-09-04T10:47:44.939Z,2.25
2022-09-04T10:50:23.094Z,2.10
2022-09-04T10:52:53.242Z,2.30
2022-09-04T10:55:47.934Z,1.98
2022-09-04T10:58:20.754Z,2.28
2022-09-04T11:01:04.227Z,2.00
2022-09-04T11:04:01.798Z,2.35
2022-09-04T11:06:57.733Z,2.25
2022-09-04T11:09:53.895Z,1.85
2022-09-04T11:12:40.641Z,2.13
2022-09-04T11:15:18.816Z,2.22
2022-09-04T11:18:19.214Z,2.30
2022-09-04T11:20:55.058Z,1.90
2022-09-04T11:23:43.564Z,2.25
2022-09-04T11:26:29.166Z,2.28
2022-09-04T11:29:10.926Z,2.08
2022-09-04T11:31:48.487Z,2.25
2022-09-04T11:34:33.860Z,2.08
2022-09-04T11:37:42.799Z,2.10
2022-09-04T11:40:46.714Z,2.28
2022-09-04T11:43:36.833Z,1.98
2022-09-04T11:46:30.176Z,2.20
2022-09-04T11:49:32.026Z,2.47
2022-09-04T11:52:34.324Z,2.15
2022-09-04T11:55:34.299Z,2.22
2022-09-04T11:58:20.773Z,2.05
2022-09-04T12:01:16.260Z,1.95
2022-09-04T12:04:01.656Z,2.10
2022-09-04T12:06:45.612Z,2.10
2022-09-04T12:09:51.451Z,2.42
2022-09-04T12:12:18.453Z,2.47
2022-09-04T12:15:07.431Z,2.40
2022-09-04T12:17:41.303Z,2.17
2022-09-04T12:20:24.363Z,2.10
2022-09-04T12:23:40.160Z,2.10
2022-09-04T12:26:51.529Z,1.70
2022-09-04T12:29:38.893Z,2.20
2022-09-04T12:32:37.552Z,2.00
2022-09-04T12:35:14.412Z,2.05
2022-09-04T12:38:15.821Z,1.90
2022-09-04T12:41:04.373Z,2.00
2022-09-04T12:43:38.655Z,2.15
2022-09-04T12:46:19.245Z,2.58
2022-09-04T12:49:07.244Z,2.13
2022-09-04T12:51:49.293Z,2.13
2022-09-04T12:54:43.488Z,2.20
2022-09-04T12:57:26.645Z,1.98
2022-09-04T13:00:13.797Z,1.90
2022-09-04T13:03:02.659Z,1.98
2022-09-04T13:05:52.970Z,2.05
2022-09-04T13:08:52.515Z,1.85
2022-09-04T13:11:35.006Z,2.13
2022-09-04T13:14:30.029Z,2.20
2022-09-04T13:17:05.726Z,2.60
2022-09-04T13:19:36.140Z,2.30
2022-09-04T13:22:11.655Z,1.95
2022-09-04T13:24:53.365Z,2.30
2022-09-04T13:27:57.340Z,2.28
2022-09-04T13:30:25.585Z,2.00
2022-09-04T13:33:06.294Z,1.80
2022-09-04T13:35:42.593Z,1.85
2022-09-04T13:38:18.744Z,2.13
2022-09-04T13:41:24.651Z,2.17
2022-09-04T13:44:27.989Z,1.95
2022-09-04T13:47:08.996Z,2.22
2022-09-04T13:49:56.646Z,2.10
2022-09-04T13:52:27.974Z,2.10
2022-09-04T13:54:57.862Z,2.13
2022-09-04T13:57:30.103Z,2.17
2022-09-04T14:00:05.829Z,2.50
2022-09-04T14:02:36.517Z,2.00
2022-09-04T14:05:13.381Z,1.70
2022-09-04T14:07:45.320Z,1.50
2022-09-04T14:10:33.693Z,2.20
2022-09-04T14:13:19.315Z,2.17
2022-09-04T14:16:01.890Z,2.30
2022-09-04T14:18:45.733Z,2.25
2022-09-04T14:21:48.164Z,1.83
2022-09-04T14:24:38.537Z,2.08
2022-09-04T14:27:39.558Z,2.28
2022-09-04T14:30:25.091Z,2.08
2022-09-04T14:33:37.340Z,2.20
2022-09-04T14:36:23.734Z,1.77
2022-09-04T14:39:09.622Z,2.28
2022-09-04T14:41:55.114Z,1.80
2022-09-04T14:44:44.359Z,2.60
2022-09-04T14:47:29.923Z,2.13
2022-09-04T14:50:01.276Z,2.22
2022-09-04T14:52:29.365Z,2.25
2022-09-04T14:55:00.053Z,2.30
2022-09-04T14:57:51.081Z,2.30
2022-09-04T15:00:20.711Z,2.50
2022-09-04T15:03:15.673Z,1.98
2022-09-04T15:05:59.703Z,1.83
2022-09-04T15:08:28.492Z,2.08
2022-09-04T15:12:23.335Z,2.00
2022-09-04T15:18:34.271Z,1.73
2022-09-04T15:21:12.752Z,1.83
2022-09-04T15:23:50.472Z,1.60
2022-09-04T15:26:48.664Z,2.00
2022-09-04T15:29:45.764Z,1.77
2022-09-04T15:32:23.666Z,2.00
2022-09-04T15:35:05.345Z,1.92
2022-09-04T15:37:33.498Z,2.10
2022-09-04T15:40:03.942Z,1.98
2022-09-04T15:43:01.738Z,2.40
2022-09-04T15:45:47.566Z,1.85
2022-09-04T15:48:45.069Z,2.90
2022-09-04T15:51:51.130Z,2.28
2022-09-04T15:54:30.462Z,2.70
2022-09-04T15:57:11.178Z,2.58
2022-09-04T15:59:45.700Z,2.38
2022-09-04T16:02:25.743Z,1.70
2022-09-04T16:05:03.201Z,2.05
2022-09-04T16:07:34.218Z,2.53
2022-09-04T16:10:25.709Z,2.33
2022-09-04T16:13:08.092Z,2.22
2022-09-04T16:15:43.081Z,2.08
2022-09-04T16:18:18.565Z,2.10
2022-09-04T16:20:55.995Z,1.90
2022-09-04T16:23:38.280Z,2.10
2022-09-04T16:26:19.205Z,1.70
2022-09-04T16:28:51.362Z,1.98
2022-09-04T16:31:32.005Z,1.92
2022-09-04T16:34:23.249Z,1.80
2022-09-04T16:37:11.859Z,1.77
2022-09-04T16:39:49.555Z,1.85
2022-09-04T16:42:37.124Z,1.80
2022-09-04T16:45:25.465Z,2.08
2022-09-04T16:48:43.203Z,1.88
2022-09-04T16:51:39.285Z,1.80
2022-09-04T16:54:37.242Z,2.22
2022-09-04T16:57:18.515Z,2.30
2022-09-04T16:59:51.254Z,2.20
2022-09-04T17:02:37.589Z,1.80
2022-09-04T17:05:20.158Z,2.28
2022-09-04T17:08:13.411Z,2.03
2022-09-04T17:10:51.271Z,2.60
2022-09-04T17:13:28.176Z,2.08
2022-09-04T17:15:58.645Z,1.85
2022-09-04T17:18:28.275Z,1.80
2022-09-04T17:24:54.326Z,1.67
2022-09-04T17:29:04.238Z,1.90
2022-09-04T17:29:10.938Z,2.00
2022-09-04T17:30:25.479Z,2.15
2022-09-04T17:37:17.556Z,2.30
2022-09-04T17:40:35.546Z,1.92
2022-09-04T17:40:36.611Z,1.80
2022-09-04T17:42:14.251Z,1.63
2022-09-04T17:44:57.447Z,2.10
2022-09-04T17:47:42.801Z,2.05
2022-09-04T17:50:12.578Z,1.80
2022-09-04T17:53:14.639Z,2.17
2022-09-04T17:56:13.862Z,2.08
2022-09-04T17:58:51.617Z,2.25
2022-09-04T18:01:27.472Z,1.88
2022-09-04T18:04:20.652Z,2.08
2022-09-04T18:07:35.656Z,1.83
2022-09-04T18:10:44.486Z,1.80
2022-09-04T18:13:37.936Z,2.38
2022-09-04T18:16:26.871Z,2.22
2022-09-04T18:18:57.767Z,2.10
2022-09-04T18:21:41.103Z,2.40
2022-09-04T18:24:16.076Z,2.08
2022-09-04T18:27:10.980Z,2.33
2022-09-04T18:37:11.313Z,2.30
2022-09-04T18:37:21.165Z,2.45
2022-09-04T18:37:23.205Z,2.10
2022-09-04T18:38:41.497Z,2.25
2022-09-04T18:50:20.582Z,2.53
2022-09-04T18:50:30.656Z,2.65
2022-09-04T18:50:31.620Z,2.45
2022-09-04T18:50:34.630Z,2.55
2022-09-04T18:52:59.962Z,2.80
2022-09-04T18:55:59.156Z,2.70
2022-09-04T18:58:45.784Z,2.33
2022-09-04T19:01:17.159Z,2.83
2022-09-04T19:04:19.523Z,2.75
2022-09-04T19:07:07.871Z,2.67
2022-09-04T19:09:59.977Z,2.47
2022-09-04T19:12:46.901Z,2.63
2022-09-04T19:15:27.456Z,2.47
2022-09-04T19:18:17.563Z,2.80
2022-09-04T19:20:49.216Z,3.15
2022-09-04T19:23:34.368Z,2.78
2022-09-04T19:26:10.245Z,3.08
2022-09-04T19:29:03.162Z,3.25
2022-09-04T19:31:39.274Z,3.03
2022-09-04T19:34:18.294Z,2.65
2022-09-04T19:38:22.588Z,2.88
2022-09-04T19:45:59.054Z,2.75
2022-09-04T19:45:59.607Z,2.70
2022-09-04T19:46:42.219Z,2.60
2022-09-04T19:52:23.678Z,2.90
2022-09-04T19:53:33.251Z,3.40
2022-09-04T19:55:24.767Z,2.55
2022-09-04T19:58:35.566Z,2.60
2022-09-04T20:01:15.856Z,3.00
2022-09-04T20:04:01.309Z,2.72
2022-09-04T20:06:53.452Z,2.70
2022-09-04T20:09:38.108Z,3.03
2022-09-04T20:12:25.419Z,3.30
2022-09-04T20:15:12.036Z,3.42
2022-09-04T20:18:14.213Z,2.70
2022-09-04T20:21:25.792Z,2.88
2022-09-04T20:24:10.976Z,2.90
2022-09-04T20:26:56.495Z,3.03
2022-09-04T20:29:54.984Z,2.60
2022-09-04T20:32:33.195Z,2.83
2022-09-04T20:35:32.499Z,2.65
2022-09-04T20:38:23.833Z,2.92
2022-09-04T20:41:15.548Z,3.17
2022-09-04T20:43:42.571Z,2.83
2022-09-04T20:48:43.329Z,2.92
2022-09-04T20:52:59.682Z,3.08
2022-09-04T20:53:09.454Z,2.78
2022-09-04T20:55:50.964Z,3.30
2022-09-04T21:03:14.434Z,3.00
2022-09-04T21:03:18.413Z,3.15
2022-09-04T21:05:34.371Z,2.80
2022-09-04T21:08:16.701Z,3.17
2022-09-04T21:11:04.066Z,3.10
2022-09-04T21:14:03.672Z,3.45
2022-09-04T21:16:39.800Z,3.58
2022-09-04T21:19:28.973Z,3.35
2022-09-04T21:22:32.361Z,3.03
2022-09-04T21:25:39.393Z,2.95
2022-09-04T21:28:24.880Z,2.95
2022-09-04T21:31:15.960Z,2.83
2022-09-04T21:34:13.305Z,3.17
2022-09-04T21:36:55.560Z,3.17
2022-09-04T21:39:57.714Z,2.65
2022-09-04T21:42:40.294Z,2.88
2022-09-04T21:45:16.108Z,3.05
2022-09-04T21:48:01.436Z,2.78
2022-09-04T21:50:52.581Z,2.90
2022-09-04T21:53:54.625Z,2.60
2022-09-04T22:02:32.090Z,2.30
2022-09-04T22:02:45.026Z,2.40
2022-09-04T22:03:02.590Z,2.10
2022-09-04T22:05:51.722Z,2.55
2022-09-04T22:13:30.678Z,2.63
2022-09-04T22:13:46.656Z,2.83
2022-09-04T22:14:51.845Z,2.20
2022-09-04T22:17:46.591Z,2.42
2022-09-04T22:20:51.555Z,2.03
2022-09-04T22:23:41.240Z,2.83
2022-09-04T22:26:53.411Z,2.25
2022-09-04T22:29:39.426Z,2.30
2022-09-04T22:32:22.171Z,2.67
2022-09-04T22:35:03.793Z,2.30
2022-09-04T22:37:48.973Z,2.28
2022-09-04T22:40:30.424Z,2.83
2022-09-04T22:43:06.110Z,2.38
2022-09-04T22:46:04.144Z,2.38
2022-09-04T22:49:11.866Z,2.45
2022-09-04T22:52:01.694Z,2.30
2022-09-04T22:54:47.935Z,2.90
2022-09-04T22:57:27.210Z,2.45
2022-09-04T23:00:11.124Z,2.50
2022-09-04T23:03:15.531Z,2.47
2022-09-04T23:07:20.010Z,2.50
2022-09-04T23:13:49.525Z,2.85
2022-09-04T23:13:58.766Z,2.40
2022-09-04T23:15:50.996Z,2.30
2022-09-04T23:20:39.978Z,2.42
2022-09-04T23:26:38.330Z,2.13
2022-09-04T23:26:48.241Z,2.30
2022-09-04T23:27:52.334Z,2.10
2022-09-04T23:30:25.509Z,2.22
2022-09-04T23:33:04.748Z,2.50
2022-09-04T23:35:46.796Z,2.30
2022-09-04T23:38:44.143Z,2.20
2022-09-04T23:41:23.429Z,2.53
2022-09-04T23:44:15.290Z,2.58
2022-09-04T23:47:10.876Z,2.58
2022-09-04T23:50:17.974Z,2.20
2022-09-04T23:53:25.103Z,2.20
2022-09-04T23:56:08.675Z,2.47
2022-09-04T23:59:22.615Z,2.60
